createdAt,value
2023-03-21T00:00:33.680Z,100846.31
2023-03-21T00:03:00.139Z,100837.97
2023-03-21T00:05:26.665Z,100843.13
2023-03-21T00:07:53.647Z,100838.16
2023-03-21T00:10:33.097Z,100847.19
2023-03-21T00:13:05.901Z,100844.78
2023-03-21T00:15:44.121Z,100839.59
2023-03-21T00:18:20.965Z,100848.06
2023-03-21T00:21:18.760Z,100825.03
2023-03-21T00:23:46.401Z,100837.69
2023-03-21T00:26:13.821Z,100839.78
2023-03-21T00:28:42.142Z,100829.56
2023-03-21T00:31:09.538Z,100827.09
2023-03-21T00:33:37.164Z,100840.50
2023-03-21T00:36:05.798Z,100831.09
2023-03-21T00:38:32.723Z,100834.78
2023-03-21T00:41:04.627Z,100835.19
2023-03-21T00:43:31.467Z,100835.31
2023-03-21T00:45:58.981Z,100825.84
2023-03-21T00:48:26.633Z,100821.84
2023-03-21T00:50:55.387Z,100819.88
2023-03-21T00:53:22.081Z,100825.47
2023-03-21T00:55:48.558Z,100823.34
2023-03-21T00:58:15.605Z,100819.69
2023-03-21T01:00:42.321Z,100812.94
2023-03-21T01:03:23.658Z,100813.09
2023-03-21T01:06:07.011Z,100805.00
2023-03-21T01:08:54.801Z,100799.78
2023-03-21T01:11:25.262Z,100809.63
2023-03-21T01:13:57.907Z,100808.66
2023-03-21T01:16:28.591Z,100799.28
2023-03-21T01:18:56.059Z,100792.59
2023-03-21T01:21:22.579Z,100790.38
2023-03-21T01:23:49.067Z,100790.09
2023-03-21T01:26:15.892Z,100790.91
2023-03-21T01:28:43.681Z,100783.03
2023-03-21T01:31:12.983Z,100787.78
2023-03-21T01:33:40.500Z,100796.66
2023-03-21T01:36:13.189Z,100784.66
2023-03-21T01:38:41.592Z,100783.38
2023-03-21T01:41:18.668Z,100785.41
2023-03-21T01:43:45.911Z,100789.63
2023-03-21T01:46:49.353Z,100783.09
2023-03-21T01:49:27.473Z,100786.28
2023-03-21T01:52:03.641Z,100776.34
2023-03-21T01:54:41.345Z,100777.63
2023-03-21T01:57:19.858Z,100776.41
2023-03-21T01:59:54.301Z,100771.28
2023-03-21T02:02:23.796Z,100771.97
2023-03-21T02:04:55.862Z,100778.03
2023-03-21T02:07:28.790Z,100770.63
2023-03-21T02:09:56.371Z,100769.44
2023-03-21T02:12:23.088Z,100771.47
2023-03-21T02:14:51.773Z,100762.50
2023-03-21T02:17:36.730Z,100760.25
2023-03-21T02:20:22.158Z,100761.44
2023-03-21T02:23:06.672Z,100750.84
2023-03-21T02:25:48.055Z,100747.22
2023-03-21T02:28:38.451Z,100753.84
2023-03-21T02:31:23.842Z,100744.91
2023-03-21T02:34:21.354Z,100744.81
2023-03-21T02:37:08.005Z,100745.38
2023-03-21T02:39:37.290Z,100747.22
2023-03-21T02:42:44.981Z,100746.09
2023-03-21T02:45:26.597Z,100740.09
2023-03-21T02:48:04.416Z,100743.25
2023-03-21T02:50:46.339Z,100738.44
2023-03-21T02:53:17.327Z,100740.13
2023-03-21T02:55:45.623Z,100740.78
2023-03-21T02:58:16.856Z,100730.28
2023-03-21T03:00:44.716Z,100730.72
2023-03-21T03:03:18.176Z,100735.44
2023-03-21T03:05:57.511Z,100736.38
2023-03-21T03:08:43.169Z,100728.50
2023-03-21T03:11:19.613Z,100724.53
2023-03-21T03:13:46.329Z,100725.88
2023-03-21T03:16:36.822Z,100726.81
2023-03-21T03:19:07.441Z,100727.22
2023-03-21T03:21:42.264Z,100729.94
2023-03-21T03:24:32.059Z,100723.19
2023-03-21T03:27:13.256Z,100720.50
2023-03-21T03:29:44.736Z,100720.00
2023-03-21T03:32:18.852Z,100722.50
2023-03-21T03:34:58.322Z,100720.38
2023-03-21T03:37:28.921Z,100725.16
2023-03-21T03:40:09.072Z,100727.03
2023-03-21T03:42:41.996Z,100722.25
2023-03-21T03:45:10.744Z,100714.41
2023-03-21T03:47:56.401Z,100715.66
2023-03-21T03:50:35.787Z,100719.44
2023-03-21T03:53:16.211Z,100711.66
2023-03-21T03:55:45.517Z,100706.41
2023-03-21T03:58:21.753Z,100706.00
2023-03-21T04:00:51.575Z,100707.63
2023-03-21T04:03:18.727Z,100705.31
2023-03-21T04:05:48.022Z,100709.81
2023-03-21T04:08:15.797Z,100707.81
2023-03-21T04:10:43.541Z,100705.75
2023-03-21T04:13:10.587Z,100706.94
2023-03-21T04:15:37.621Z,100707.19
2023-03-21T04:18:04.279Z,100698.97
2023-03-21T04:20:36.855Z,100705.19
2023-03-21T04:23:04.722Z,100702.75
2023-03-21T04:25:34.767Z,100703.53
2023-03-21T04:28:01.798Z,100701.53
2023-03-21T04:30:28.248Z,100710.56
2023-03-21T04:32:56.756Z,100711.41
2023-03-21T04:35:24.668Z,100702.78
2023-03-21T04:37:51.685Z,100704.59
2023-03-21T04:40:18.855Z,100697.78
2023-03-21T04:42:47.137Z,100700.75
2023-03-21T04:45:15.550Z,100694.31
2023-03-21T04:47:42.650Z,100703.22
2023-03-21T04:50:10.664Z,100701.66
2023-03-21T04:52:37.084Z,100692.41
2023-03-21T04:55:03.751Z,100690.91
2023-03-21T04:57:30.200Z,100700.06
2023-03-21T04:59:56.665Z,100689.53
2023-03-21T05:02:23.181Z,100692.06
2023-03-21T05:04:49.644Z,100699.50
2023-03-21T05:07:16.042Z,100696.69
2023-03-21T05:09:42.462Z,100697.34
2023-03-21T05:12:08.940Z,100692.84
2023-03-21T05:14:35.543Z,100699.59
2023-03-21T05:17:05.146Z,100696.91
2023-03-21T05:19:36.136Z,100700.63
2023-03-21T05:22:08.574Z,100700.56
2023-03-21T05:24:37.386Z,100704.41
2023-03-21T05:27:03.850Z,100702.69
2023-03-21T05:29:32.146Z,100700.59
2023-03-21T05:32:00.652Z,100697.75
2023-03-21T05:34:28.287Z,100707.59
2023-03-21T05:36:54.937Z,100699.66
2023-03-21T05:39:21.681Z,100695.06
2023-03-21T05:41:48.127Z,100699.50
2023-03-21T05:44:14.543Z,100694.91
2023-03-21T05:46:41.028Z,100699.53
2023-03-21T05:49:07.435Z,100699.25
2023-03-21T05:51:33.885Z,100698.03
2023-03-21T05:54:00.314Z,100700.69
2023-03-21T05:56:26.756Z,100695.28
2023-03-21T05:58:53.364Z,100691.00
2023-03-21T06:01:19.874Z,100692.31
2023-03-21T06:03:46.404Z,100687.00
2023-03-21T06:06:13.008Z,100690.91
2023-03-21T06:08:39.485Z,100693.94
2023-03-21T06:11:14.344Z,100694.59
2023-03-21T06:13:40.740Z,100687.22
2023-03-21T06:16:07.514Z,100695.28
2023-03-21T06:18:33.940Z,100689.84
2023-03-21T06:21:00.476Z,100697.84
2023-03-21T06:23:27.031Z,100687.00
2023-03-21T06:25:53.504Z,100694.41
2023-03-21T06:28:19.929Z,100692.81
2023-03-21T06:30:46.332Z,100685.31
2023-03-21T06:33:12.781Z,100682.25
2023-03-21T06:35:39.567Z,100678.44
2023-03-21T06:38:07.088Z,100683.03
2023-03-21T06:40:33.602Z,100676.91
2023-03-21T06:43:00.055Z,100688.69
2023-03-21T06:45:26.599Z,100695.19
2023-03-21T06:47:53.113Z,100699.31
2023-03-21T06:50:19.674Z,100691.88
2023-03-21T06:52:46.180Z,100691.34
2023-03-21T06:55:12.632Z,100696.22
2023-03-21T06:57:39.065Z,100700.78
2023-03-21T07:00:06.172Z,100690.72
2023-03-21T07:02:32.772Z,100691.31
2023-03-21T07:04:59.261Z,100694.41
2023-03-21T07:07:27.008Z,100694.56
2023-03-21T07:09:53.405Z,100694.56
2023-03-21T07:12:19.915Z,100686.22
2023-03-21T07:14:46.310Z,100697.19
2023-03-21T07:17:12.797Z,100685.81
2023-03-21T07:19:39.213Z,100690.50
2023-03-21T07:22:05.996Z,100701.16
2023-03-21T07:24:32.598Z,100699.84
2023-03-21T07:26:59.011Z,100698.13
2023-03-21T07:29:25.491Z,100698.41
2023-03-21T07:31:52.114Z,100697.63
2023-03-21T07:34:18.952Z,100686.78
2023-03-21T07:36:45.610Z,100687.00
2023-03-21T07:39:12.079Z,100692.09
2023-03-21T07:41:38.504Z,100695.72
2023-03-21T07:46:36.691Z,100688.69
2023-03-21T07:49:03.147Z,100694.78
2023-03-21T07:51:29.534Z,100692.47
2023-03-21T07:53:55.947Z,100691.06
2023-03-21T07:56:22.377Z,100688.81
2023-03-21T07:58:48.809Z,100683.97
2023-03-21T08:01:15.590Z,100691.81
2023-03-21T08:03:43.402Z,100693.84
2023-03-21T08:06:10.490Z,100678.34
2023-03-21T08:08:37.159Z,100681.84
2023-03-21T08:11:04.448Z,100687.13
2023-03-21T08:13:30.944Z,100680.91
2023-03-21T08:15:57.368Z,100685.97
2023-03-21T08:18:23.984Z,100693.78
2023-03-21T08:20:57.709Z,100687.38
2023-03-21T08:23:25.338Z,100680.28
2023-03-21T08:25:55.806Z,100688.97
2023-03-21T08:28:22.779Z,100689.25
2023-03-21T08:30:49.883Z,100678.56
2023-03-21T08:33:18.663Z,100685.41
2023-03-21T08:35:46.260Z,100681.13
2023-03-21T08:38:13.377Z,100687.28
2023-03-21T08:40:39.851Z,100677.88
2023-03-21T08:43:06.439Z,100680.31
2023-03-21T08:45:32.986Z,100681.25
2023-03-21T08:47:59.464Z,100676.25
2023-03-21T08:50:29.589Z,100680.06
2023-03-21T08:52:56.013Z,100682.19
2023-03-21T08:55:22.550Z,100677.41
2023-03-21T08:57:48.968Z,100684.03
2023-03-21T09:00:17.828Z,100682.09
2023-03-21T09:02:46.781Z,100688.53
2023-03-21T09:05:13.244Z,100688.59
2023-03-21T09:07:41.583Z,100685.63
2023-03-21T09:10:21.190Z,100678.91
2023-03-21T09:12:53.360Z,100673.06
2023-03-21T09:15:21.844Z,100676.63
2023-03-21T09:17:52.999Z,100682.38
2023-03-21T09:20:25.912Z,100689.88
2023-03-21T09:22:53.314Z,100693.28
2023-03-21T09:25:21.334Z,100683.94
2023-03-21T09:27:48.321Z,100681.38
2023-03-21T09:30:17.357Z,100682.28
2023-03-21T09:32:49.391Z,100687.00
2023-03-21T09:35:18.611Z,100682.31
2023-03-21T09:37:47.236Z,100683.59
2023-03-21T09:40:42.974Z,100681.78
2023-03-21T09:43:37.166Z,100684.44
2023-03-21T09:46:13.866Z,100678.31
2023-03-21T09:48:57.182Z,100678.78
2023-03-21T09:51:28.726Z,100678.16
2023-03-21T09:54:00.552Z,100673.78
2023-03-21T09:56:27.082Z,100672.63
2023-03-21T09:58:59.222Z,100675.41
2023-03-21T10:01:30.024Z,100672.72
2023-03-21T10:04:00.965Z,100669.50
2023-03-21T10:06:31.731Z,100662.66
2023-03-21T10:09:09.202Z,100664.28
2023-03-21T10:11:42.143Z,100665.34
2023-03-21T10:14:15.288Z,100666.91
2023-03-21T10:16:44.712Z,100672.13
2023-03-21T10:19:17.738Z,100661.78
2023-03-21T10:22:04.391Z,100664.56
2023-03-21T10:24:34.578Z,100668.47
2023-03-21T10:27:02.799Z,100665.66
2023-03-21T10:29:42.167Z,100656.16
2023-03-21T10:32:17.430Z,100655.31
2023-03-21T10:34:50.904Z,100655.16
2023-03-21T10:37:17.609Z,100647.63
2023-03-21T10:39:47.448Z,100656.31
2023-03-21T10:42:24.657Z,100643.38
2023-03-21T10:44:53.705Z,100645.13
2023-03-21T10:47:25.955Z,100639.66
2023-03-21T10:50:09.903Z,100648.53
2023-03-21T10:52:42.174Z,100634.97
2023-03-21T10:55:17.851Z,100634.88
2023-03-21T10:57:47.267Z,100625.50
2023-03-21T11:00:21.797Z,100628.63
2023-03-21T11:02:50.786Z,100622.59
2023-03-21T11:05:22.850Z,100629.22
2023-03-21T11:08:01.748Z,100623.41
2023-03-21T11:10:37.901Z,100613.09
2023-03-21T11:13:18.862Z,100617.06
2023-03-21T11:15:55.903Z,100611.81
2023-03-21T11:18:30.957Z,100609.75
2023-03-21T11:21:03.138Z,100617.13
2023-03-21T11:23:32.690Z,100601.47
2023-03-21T11:26:00.909Z,100607.66
2023-03-21T11:28:36.814Z,100620.19
2023-03-21T11:31:05.513Z,100602.34
2023-03-21T11:33:55.255Z,100601.44
2023-03-21T11:36:21.884Z,100603.69
2023-03-21T11:38:51.836Z,100608.94
2023-03-21T11:41:29.588Z,100605.56
2023-03-21T11:43:56.948Z,100604.41
2023-03-21T11:46:28.953Z,100605.66
2023-03-21T11:48:57.483Z,100604.38
2023-03-21T11:51:41.377Z,100604.66
2023-03-21T11:54:35.593Z,100596.97
2023-03-21T11:57:29.619Z,100599.69
2023-03-21T12:00:18.169Z,100598.44
2023-03-21T12:03:02.629Z,100599.44
2023-03-21T12:05:34.351Z,100585.13
2023-03-21T12:08:25.182Z,100583.69
2023-03-21T12:10:59.169Z,100573.47
2023-03-21T12:13:45.202Z,100583.38
2023-03-21T12:16:43.277Z,100578.28
2023-03-21T12:19:24.228Z,100573.97
2023-03-21T12:22:12.209Z,100574.75
2023-03-21T12:24:38.639Z,100567.59
2023-03-21T12:27:05.242Z,100561.28
2023-03-21T12:30:09.958Z,100569.16
2023-03-21T12:32:36.364Z,100564.38
2023-03-21T12:35:08.524Z,100563.44
2023-03-21T12:37:43.297Z,100557.41
2023-03-21T12:40:27.046Z,100555.78
2023-03-21T12:43:30.039Z,100543.44
2023-03-21T12:46:17.965Z,100545.25
2023-03-21T12:48:44.534Z,100548.25
2023-03-21T12:51:17.936Z,100539.28
2023-03-21T12:53:47.245Z,100543.22
2023-03-21T12:56:20.755Z,100530.91
2023-03-21T12:58:59.808Z,100530.53
2023-03-21T13:01:28.810Z,100525.00
2023-03-21T13:04:31.636Z,100525.91
2023-03-21T13:07:02.233Z,100525.19
2023-03-21T13:09:42.072Z,100525.41
2023-03-21T13:12:59.785Z,100522.03
2023-03-21T13:16:14.438Z,100509.66
2023-03-21T13:18:55.621Z,100518.97
2023-03-21T13:22:06.616Z,100514.28
2023-03-21T13:24:33.037Z,100513.78
2023-03-21T13:27:30.815Z,100504.78
2023-03-21T13:30:00.939Z,100510.63
2023-03-21T13:32:56.836Z,100500.94
2023-03-21T13:35:32.765Z,100498.25
2023-03-21T13:38:01.907Z,100508.41
2023-03-21T13:40:42.798Z,100502.34
2023-03-21T13:43:32.467Z,100500.47
2023-03-21T13:46:11.657Z,100500.88
2023-03-21T13:49:04.358Z,100501.59
2023-03-21T13:51:37.145Z,100498.59
2023-03-21T13:54:17.485Z,100494.81
2023-03-21T13:56:46.892Z,100488.41
2023-03-21T13:59:38.722Z,100487.19
2023-03-21T14:02:28.897Z,100484.06
2023-03-21T14:05:06.564Z,100491.31
2023-03-21T14:07:42.667Z,100489.84
2023-03-21T14:10:28.040Z,100479.91
2023-03-21T14:12:54.739Z,100482.53
2023-03-21T14:15:27.681Z,100484.03
2023-03-21T14:17:57.114Z,100480.47
2023-03-21T14:20:27.235Z,100479.28
2023-03-21T14:22:53.953Z,100472.84
2023-03-21T14:25:24.367Z,100465.53
2023-03-21T14:27:56.763Z,100473.88
2023-03-21T14:30:28.062Z,100468.31
2023-03-21T14:32:58.688Z,100469.19
2023-03-21T14:35:31.308Z,100471.13
2023-03-21T14:38:01.234Z,100466.03
2023-03-21T14:40:28.882Z,100466.16
2023-03-21T14:42:55.522Z,100460.81
2023-03-21T14:45:27.996Z,100450.63
2023-03-21T14:48:21.219Z,100453.97
2023-03-21T14:50:47.687Z,100450.47
2023-03-21T14:53:29.417Z,100458.63
2023-03-21T14:55:55.786Z,100448.50
2023-03-21T14:58:23.406Z,100442.66
2023-03-21T15:00:51.070Z,100446.44
2023-03-21T15:03:20.422Z,100450.59
2023-03-21T15:05:46.956Z,100450.47
2023-03-21T15:08:19.270Z,100443.75
2023-03-21T15:11:15.396Z,100440.00
2023-03-21T15:13:54.963Z,100442.19
2023-03-21T15:16:23.041Z,100444.41
2023-03-21T15:18:50.110Z,100449.88
2023-03-21T15:21:32.119Z,100444.34
2023-03-21T15:24:04.992Z,100441.75
2023-03-21T15:26:31.853Z,100437.41
2023-03-21T15:29:00.319Z,100435.56
2023-03-21T15:31:31.815Z,100438.44
2023-03-21T15:33:58.392Z,100428.94
2023-03-21T15:36:32.753Z,100424.00
2023-03-21T15:39:05.594Z,100422.91
2023-03-21T15:41:33.373Z,100425.06
2023-03-21T15:43:59.740Z,100437.03
2023-03-21T15:46:52.670Z,100428.28
2023-03-21T15:49:27.175Z,100421.84
2023-03-21T15:52:12.525Z,100419.69
2023-03-21T15:54:55.579Z,100415.44
2023-03-21T15:57:30.000Z,100416.53
2023-03-21T16:00:21.426Z,100417.72
2023-03-21T16:02:51.900Z,100417.22
2023-03-21T16:05:31.825Z,100421.50
2023-03-21T16:08:03.318Z,100404.88
2023-03-21T16:10:33.644Z,100409.78
2023-03-21T16:13:00.736Z,100405.31
2023-03-21T16:15:27.575Z,100398.44
2023-03-21T16:18:00.257Z,100404.72
2023-03-21T16:20:32.631Z,100396.09
2023-03-21T16:22:59.159Z,100390.75
2023-03-21T16:25:25.864Z,100383.13
2023-03-21T16:27:52.400Z,100384.13
2023-03-21T16:30:21.949Z,100377.56
2023-03-21T16:32:50.017Z,100383.69
2023-03-21T16:35:17.238Z,100379.44
2023-03-21T16:37:44.167Z,100375.94
2023-03-21T16:40:37.603Z,100374.06
2023-03-21T16:43:04.167Z,100366.41
2023-03-21T16:45:30.972Z,100369.44
2023-03-21T16:47:58.299Z,100371.72
2023-03-21T16:50:29.607Z,100362.50
2023-03-21T16:52:56.828Z,100373.56
2023-03-21T16:55:23.820Z,100359.84
2023-03-21T16:57:55.637Z,100368.53
2023-03-21T17:00:25.052Z,100361.31
2023-03-21T17:02:53.513Z,100351.94
2023-03-21T17:05:22.250Z,100356.88
2023-03-21T17:07:48.874Z,100351.56
2023-03-21T17:10:19.485Z,100350.03
2023-03-21T17:12:46.246Z,100356.34
2023-03-21T17:15:13.528Z,100345.25
2023-03-21T17:17:40.830Z,100352.34
2023-03-21T17:20:16.842Z,100341.72
2023-03-21T17:22:43.329Z,100327.28
2023-03-21T17:25:09.866Z,100332.03
2023-03-21T17:27:36.305Z,100339.72
2023-03-21T17:30:03.118Z,100349.38
2023-03-21T17:32:29.664Z,100355.19
2023-03-21T17:34:56.189Z,100350.84
2023-03-21T17:37:26.038Z,100348.41
2023-03-21T17:39:52.476Z,100346.13
2023-03-21T17:42:20.510Z,100353.50
2023-03-21T17:44:46.975Z,100350.88
2023-03-21T17:47:13.463Z,100353.78
2023-03-21T17:49:39.962Z,100345.28
2023-03-21T17:52:06.465Z,100351.97
2023-03-21T17:54:32.965Z,100355.94
2023-03-21T17:56:59.398Z,100363.59
2023-03-21T17:59:25.872Z,100366.03
2023-03-21T18:01:52.389Z,100362.47
2023-03-21T18:04:19.813Z,100354.56
2023-03-21T18:06:47.072Z,100356.38
2023-03-21T18:09:13.777Z,100350.03
2023-03-21T18:11:40.847Z,100348.25
2023-03-21T18:14:16.237Z,100349.56
2023-03-21T18:16:44.483Z,100357.06
2023-03-21T18:19:13.141Z,100362.66
2023-03-21T18:21:45.239Z,100357.63
2023-03-21T18:24:12.743Z,100356.06
2023-03-21T18:26:39.229Z,100358.72
2023-03-21T18:32:05.395Z,100340.31
2023-03-21T18:34:33.580Z,100351.47
2023-03-21T18:37:03.759Z,100356.09
2023-03-21T18:39:30.970Z,100360.22
2023-03-21T18:42:02.137Z,100358.66
2023-03-21T18:44:29.979Z,100359.13
2023-03-21T18:46:57.695Z,100354.91
2023-03-21T18:50:05.991Z,100347.31
2023-03-21T18:52:12.216Z,100343.75
2023-03-21T18:54:39.095Z,100357.50
2023-03-21T18:59:53.180Z,100354.63
2023-03-21T19:02:20.923Z,100352.84
2023-03-21T19:04:47.816Z,100351.25
2023-03-21T19:07:14.419Z,100367.78
2023-03-21T19:12:28.421Z,100350.72
2023-03-21T19:14:54.940Z,100354.13
2023-03-21T19:20:09.802Z,100345.16
2023-03-21T19:22:36.736Z,100339.63
2023-03-21T19:25:05.454Z,100347.28
2023-03-21T19:27:34.636Z,100347.69
2023-03-21T19:30:13.434Z,100348.28
2023-03-21T19:32:42.870Z,100355.09
2023-03-21T19:35:09.555Z,100354.19
2023-03-21T19:37:36.334Z,100363.63
2023-03-21T19:40:05.294Z,100372.91
2023-03-21T19:42:32.352Z,100377.75
2023-03-21T19:44:58.818Z,100377.25
2023-03-21T19:47:25.459Z,100388.34
2023-03-21T19:51:03.286Z,100373.91
2023-03-21T19:53:26.543Z,100383.00
2023-03-21T19:55:54.099Z,100381.59
2023-03-21T19:58:22.756Z,100377.16
2023-03-21T20:00:49.889Z,100377.72
2023-03-21T20:03:16.810Z,100373.47
2023-03-21T20:05:43.267Z,100377.28
2023-03-21T20:08:10.890Z,100372.22
2023-03-21T20:10:38.010Z,100370.53
2023-03-21T20:13:04.913Z,100365.53
2023-03-21T20:15:32.126Z,100358.00
2023-03-21T20:17:58.625Z,100358.78
2023-03-21T20:20:25.426Z,100366.38
2023-03-21T20:23:06.297Z,100367.81
2023-03-21T20:25:33.651Z,100364.56
2023-03-21T20:28:15.081Z,100362.31
2023-03-21T20:30:54.597Z,100363.66
2023-03-21T20:33:21.203Z,100358.31
2023-03-21T20:38:35.851Z,100372.19
2023-03-21T20:41:05.413Z,100366.66
2023-03-21T20:46:19.806Z,100361.72
2023-03-21T20:48:48.820Z,100364.16
2023-03-21T20:54:01.774Z,100359.19
2023-03-21T20:56:30.382Z,100354.28
2023-03-21T20:59:12.588Z,100358.00
2023-03-21T21:01:43.083Z,100353.00
2023-03-21T21:04:09.749Z,100347.78
2023-03-21T21:06:36.385Z,100348.72
2023-03-21T21:09:03.140Z,100350.31
2023-03-21T21:14:16.396Z,100353.63
2023-03-21T21:16:42.882Z,100344.97
2023-03-21T21:19:09.845Z,100342.75
2023-03-21T21:21:36.367Z,100349.38
2023-03-21T21:24:02.799Z,100339.22
2023-03-21T21:26:29.330Z,100335.16
2023-03-21T21:28:58.102Z,100339.94
2023-03-21T21:31:24.693Z,100334.13
2023-03-21T21:33:54.057Z,100324.28
2023-03-21T21:36:22.610Z,100332.03
2023-03-21T21:38:49.562Z,100321.50
2023-03-21T21:41:19.449Z,100331.00
2023-03-21T21:43:47.064Z,100325.53
2023-03-21T21:46:13.918Z,100317.66
2023-03-21T21:48:41.142Z,100314.88
2023-03-21T21:51:08.003Z,100314.06
2023-03-21T21:53:36.402Z,100311.84
2023-03-21T21:56:04.214Z,100317.53
2023-03-21T21:58:33.677Z,100307.75
2023-03-21T22:01:01.709Z,100304.97
2023-03-21T22:03:36.342Z,100304.38
2023-03-21T22:06:03.528Z,100303.03
2023-03-21T22:08:30.109Z,100307.09
2023-03-21T22:10:56.640Z,100305.59
2023-03-21T22:13:23.069Z,100310.97
2023-03-21T22:15:49.469Z,100307.91
2023-03-21T22:18:15.918Z,100300.59
2023-03-21T22:20:42.468Z,100300.88
2023-03-21T22:23:08.902Z,100298.44
2023-03-21T22:25:36.243Z,100299.16
2023-03-21T22:28:03.143Z,100299.19
2023-03-21T22:30:30.493Z,100291.25
2023-03-21T22:33:08.919Z,100291.06
2023-03-21T22:35:36.451Z,100299.03
2023-03-21T22:38:02.922Z,100299.41
2023-03-21T22:40:29.415Z,100300.63
2023-03-21T22:42:55.876Z,100307.50
2023-03-21T22:45:22.321Z,100311.13
2023-03-21T22:47:48.858Z,100311.59
2023-03-21T22:50:15.374Z,100312.88
2023-03-21T22:52:41.826Z,100303.44
2023-03-21T22:55:09.987Z,100298.13
2023-03-21T22:57:36.448Z,100298.88
2023-03-21T23:00:12.913Z,100294.94
2023-03-21T23:02:42.493Z,100295.84
2023-03-21T23:05:10.296Z,100297.66
2023-03-21T23:07:37.524Z,100284.56
2023-03-21T23:10:05.349Z,100289.38
2023-03-21T23:12:32.082Z,100287.22
2023-03-21T23:14:58.597Z,100285.34
2023-03-21T23:17:25.110Z,100282.88
2023-03-21T23:19:51.531Z,100283.13
2023-03-21T23:22:18.227Z,100279.06
2023-03-21T23:24:45.167Z,100277.56
2023-03-21T23:27:14.149Z,100274.63
2023-03-21T23:29:40.587Z,100271.91
2023-03-21T23:32:07.094Z,100275.88
2023-03-21T23:34:33.511Z,100275.25
2023-03-21T23:36:59.938Z,100278.22
2023-03-21T23:39:26.506Z,100276.41
2023-03-21T23:41:52.908Z,100275.16
2023-03-21T23:44:19.343Z,100276.31
2023-03-21T23:46:45.785Z,100273.88
2023-03-21T23:49:12.260Z,100272.16
2023-03-21T23:51:38.685Z,100266.97
2023-03-21T23:54:05.259Z,100268.97
2023-03-21T23:56:32.329Z,100263.66
2023-03-21T23:58:59.043Z,100270.66
